Terminal Aerodrome Forecast
Issued by NWS Upton, NY

Home | Current Version | Previous Version | Text Only | Print | Product List | Glossary On
Versions: 1 2 3 4 5 6 7 8 9 10 11 12 13 14 15 16 17 18 19 20 21 22 23 24 25 26 27 28 29
000
FTUS41 KOKX 031720
TAFJFK
TAF
KJFK 031720Z 0318/0424 19016G22KT P6SM FEW050
     FM032000 19021G26KT P6SM SCT050 SCT100
     FM040100 20015KT P6SM VCTS SCT050CB BKN100
     FM040600 21010KT P6SM SCT050 BKN100
     FM041400 21015G20KT P6SM SCT050 SCT100
     FM042000 20018G25KT P6SM BKN050=

USA.gov is the U.S. government's official web portal to all federal, state and local government web resources and services.